Time;durP1;ratioP1;P1;durP2;ratioP2;P2;SDS_P1;SDS_P2;PMS_P1;PMS_P2;Temp;Humidity;BMP_temperature;BMP_pressure;BME280_temperature;BME280_humidity;BME280_pressure;Samples;Min_cycle;Max_cycle;Signal;HPM_P1;HPM_P2
2022/07/02 00:00:51;;;;;;;11.15;10.07;;;;;;;18.10;73.87;93676.09;5091756;28;20031;-57
2022/07/02 00:03:23;;;;;;;10.48;8.75;;;;;;;17.97;74.74;93676.63;5091622;28;20507;-60
2022/07/02 00:05:55;;;;;;;15.18;8.80;;;;;;;17.70;74.96;93650.94;5090565;28;20523;-60
2022/07/02 00:08:23;;;;;;;16.70;15.07;;;;;;;17.96;74.72;93677.94;5091547;28;20035;-60
2022/07/02 00:10:50;;;;;;;10.90;9.45;;;;;;;18.01;74.62;93679.69;5091757;28;20102;-60
2022/07/02 00:13:17;;;;;;;11.38;9.38;;;;;;;18.11;74.41;93680.38;5091714;28;20130;-60
2022/07/02 00:15:43;;;;;;;11.18;9.68;;;;;;;18.27;73.46;93678.00;5091572;28;20034;-61
2022/07/02 00:18:10;;;;;;;12.55;9.30;;;;;;;18.25;74.01;93683.44;5107176;28;20054;-62
2022/07/02 00:20:37;;;;;;;13.50;9.60;;;;;;;18.34;74.00;93679.13;5111915;28;20085;-59
2022/07/02 00:23:02;;;;;;;13.27;10.38;;;;;;;18.17;74.74;93677.25;5111666;28;20485;-59
2022/07/02 00:25:32;;;;;;;30.83;28.55;;;;;;;18.19;75.04;93669.75;5111871;28;20038;-60
2022/07/02 00:27:59;;;;;;;11.23;9.95;;;;;;;18.28;74.61;93673.13;5111955;28;20032;-60
2022/07/02 00:30:24;;;;;;;13.80;9.77;;;;;;;18.27;74.92;93672.41;5111741;28;20469;-60
2022/07/02 00:32:50;;;;;;;20.08;15.68;;;;;;;18.27;73.60;93671.66;5111451;28;20031;-61
2022/07/02 00:35:15;;;;;;;11.50;8.48;;;;;;;18.32;72.51;93668.53;5111483;28;20077;-60
2022/07/02 00:37:41;;;;;;;12.43;9.32;;;;;;;18.21;72.14;93669.19;5110387;28;20031;-60
2022/07/02 00:40:08;;;;;;;10.35;9.05;;;;;;;18.30;71.80;93670.47;5111224;28;20027;-60
2022/07/02 00:42:35;;;;;;;16.52;9.95;;;;;;;18.29;72.21;93674.59;5111608;28;20027;-60
2022/07/02 00:45:02;;;;;;;11.75;8.70;;;;;;;18.25;71.92;93661.06;5111481;28;20038;-60
2022/07/02 00:47:29;;;;;;;11.93;10.15;;;;;;;18.30;72.27;93664.88;5109901;28;20126;-59
2022/07/02 00:49:55;;;;;;;11.23;8.43;;;;;;;18.26;72.85;93667.41;5110592;28;20508;-58
2022/07/02 00:52:21;;;;;;;17.50;8.93;;;;;;;18.11;72.64;93671.25;5110796;28;20016;-56
2022/07/02 00:54:47;;;;;;;13.82;9.02;;;;;;;17.71;74.05;93669.16;5111294;28;20165;-59
2022/07/02 00:57:13;;;;;;;16.38;9.48;;;;;;;17.61;74.45;93664.91;5111230;28;20559;-58
2022/07/02 00:59:38;;;;;;;11.15;8.73;;;;;;;17.77;74.15;93664.00;5111310;28;20038;-58
2022/07/02 01:02:06;;;;;;;10.20;9.10;;;;;;;17.73;74.12;93672.09;5110972;28;20408;-58
2022/07/02 01:04:33;;;;;;;12.37;8.53;;;;;;;17.72;74.01;93673.41;5111429;28;20035;-58
2022/07/02 01:07:06;;;;;;;11.50;8.95;;;;;;;17.80;73.66;93670.47;5111028;28;20039;-58
2022/07/02 01:12:23;;;;;;;10.20;8.90;;;;;;;17.96;73.19;93666.00;5110560;28;20088;-55
2022/07/02 01:14:49;;;;;;;10.57;8.75;;;;;;;17.97;73.21;93668.22;5110445;28;20035;-53
2022/07/02 01:17:15;;;;;;;14.15;8.55;;;;;;;18.02;72.80;93669.97;5110382;28;20417;-56
2022/07/02 01:19:40;;;;;;;16.42;9.77;;;;;;;17.96;72.93;93661.16;5110410;28;20080;-54
2022/07/02 01:22:15;;;;;;;10.63;8.48;;;;;;;17.86;73.14;93660.47;5110695;28;20106;-55
2022/07/02 01:24:42;;;;;;;9.90;8.10;;;;;;;17.80;73.02;93654.44;5110629;28;20073;-56
2022/07/02 01:27:07;;;;;;;8.88;7.65;;;;;;;17.77;72.77;93661.22;5110394;28;20477;-58
2022/07/02 01:29:33;;;;;;;11.10;7.70;;;;;;;17.74;72.86;93665.19;5110832;28;20039;-58
2022/07/02 01:31:58;;;;;;;11.73;7.90;;;;;;;17.49;73.71;93656.38;5110189;28;20043;-56
2022/07/02 01:34:24;;;;;;;9.23;8.20;;;;;;;17.29;74.42;93658.44;5110393;28;20112;-54
2022/07/02 01:36:49;;;;;;;10.85;9.00;;;;;;;17.11;75.59;93645.97;5110561;28;20023;-53
2022/07/02 01:39:15;;;;;;;12.50;8.48;;;;;;;17.20;75.37;93653.59;5110442;28;20416;-53
2022/07/02 01:41:41;;;;;;;9.75;8.32;;;;;;;17.48;74.22;93648.59;5110281;28;20015;-52
2022/07/02 01:44:07;;;;;;;9.20;8.23;;;;;;;17.56;73.61;93647.16;5110123;28;20055;-52
2022/07/02 01:46:33;;;;;;;8.73;7.72;;;;;;;17.37;73.59;93644.31;5110204;27;20027;-57
2022/07/02 01:48:58;;;;;;;10.50;9.43;;;;;;;17.04;74.53;93646.13;5109867;28;20079;-58
2022/07/02 01:51:24;;;;;;;8.52;7.13;;;;;;;17.12;74.20;93652.28;5108486;28;20027;-57
2022/07/02 01:53:49;;;;;;;11.10;7.35;;;;;;;16.99;74.51;93639.50;5109894;28;20111;-57
2022/07/02 01:56:15;;;;;;;13.20;12.07;;;;;;;16.88;75.55;93651.22;5109951;28;20024;-56
2022/07/02 01:58:40;;;;;;;9.57;8.07;;;;;;;16.87;75.96;93649.03;5109838;28;20470;-57
2022/07/02 02:01:06;;;;;;;10.60;8.32;;;;;;;16.97;75.63;93652.56;5109475;28;20027;-58
2022/07/02 02:03:31;;;;;;;9.35;7.72;;;;;;;17.13;74.54;93646.09;5109711;28;20075;-56
2022/07/02 02:05:57;;;;;;;8.85;7.95;;;;;;;17.29;74.36;93646.53;5109614;28;20085;-59
2022/07/02 02:08:22;;;;;;;12.50;8.63;;;;;;;17.22;74.71;93650.94;5109614;28;20057;-56
2022/07/02 02:10:48;;;;;;;9.77;8.77;;;;;;;17.26;74.65;93650.53;5091605;28;20035;-55
2022/07/02 02:13:13;;;;;;;9.38;8.38;;;;;;;17.36;74.31;93660.38;5089202;28;20039;-53
2022/07/02 02:15:38;;;;;;;11.18;8.23;;;;;;;17.25;74.74;93657.41;5089228;28;20032;-54
2022/07/02 02:18:04;;;;;;;11.35;8.75;;;;;;;17.37;74.50;93652.69;5105564;28;20031;-56
2022/07/02 02:20:29;;;;;;;14.43;9.27;;;;;;;17.44;74.18;93652.56;5109764;28;20027;-55
2022/07/02 02:22:55;;;;;;;9.32;8.40;;;;;;;17.17;74.89;93657.56;5109710;28;20459;-54
2022/07/02 02:25:21;;;;;;;10.73;8.13;;;;;;;17.24;75.06;93653.88;5109313;28;20028;-53
2022/07/02 02:27:47;;;;;;;11.10;8.45;;;;;;;17.31;74.45;93657.84;5109259;28;20034;-60
2022/07/02 02:30:13;;;;;;;8.40;7.57;;;;;;;17.11;75.04;93661.97;5109314;28;20035;-54
2022/07/02 02:32:39;;;;;;;8.57;7.72;;;;;;;17.15;74.37;93665.78;5109065;28;20034;-59
2022/07/02 02:35:05;;;;;;;9.90;7.03;;;;;;;17.17;73.46;93670.78;5109269;28;20028;-51
2022/07/02 02:37:30;;;;;;;9.05;7.45;;;;;;;17.23;73.67;93662.84;5109410;28;20053;-50
2022/07/02 02:39:56;;;;;;;8.70;7.35;;;;;;;17.02;74.47;93660.63;5109243;27;20027;-49
2022/07/02 02:42:21;;;;;;;13.55;8.68;;;;;;;16.83;75.07;93654.31;5109094;28;20027;-48
2022/07/02 02:44:47;;;;;;;12.57;8.00;;;;;;;17.01;74.31;93673.13;5109063;28;20081;-52
2022/07/02 02:47:12;;;;;;;12.00;7.43;;;;;;;17.07;73.56;93667.25;5109478;28;20030;-53
2022/07/02 02:49:38;;;;;;;7.88;7.00;;;;;;;16.87;74.33;93677.63;5094758;28;20679;-51
2022/07/02 02:52:04;;;;;;;13.02;7.75;;;;;;;17.07;73.60;93687.50;5088706;28;20024;-52
2022/07/02 02:54:30;;;;;;;8.38;7.57;;;;;;;16.86;74.45;93690.13;5088840;28;20031;-52
2022/07/02 02:56:55;;;;;;;16.90;7.65;;;;;;;16.95;74.22;93685.88;5088656;28;20081;-52
2022/07/02 02:59:21;;;;;;;9.18;7.90;;;;;;;16.92;74.19;93687.78;5088578;28;20055;-53
2022/07/02 03:01:46;;;;;;;10.18;7.32;;;;;;;17.08;73.63;93689.00;5088890;28;20055;-51
2022/07/02 03:04:12;;;;;;;8.25;7.45;;;;;;;17.19;73.27;93690.47;5088622;28;20111;-54
2022/07/02 03:06:37;;;;;;;7.72;6.93;;;;;;;16.95;73.95;93694.25;5090140;28;20036;-50
2022/07/02 03:09:03;;;;;;;7.97;7.18;;;;;;;17.12;73.17;93694.13;5093361;28;20024;-51
2022/07/02 03:11:28;;;;;;;7.40;6.60;;;;;;;17.07;73.55;93695.13;5089382;28;20024;-51
2022/07/02 03:13:54;;;;;;;11.18;7.65;;;;;;;16.90;74.27;93698.06;5092759;28;20036;-51
2022/07/02 03:16:19;;;;;;;11.73;7.68;;;;;;;16.95;74.44;93694.25;5094681;28;20024;-55
2022/07/02 03:18:46;;;;;;;8.40;7.35;;;;;;;16.97;74.80;93692.34;5112998;28;20055;-60
2022/07/02 03:21:11;;;;;;;7.40;6.65;;;;;;;16.79;74.51;93659.56;5113067;28;20061;-55
2022/07/02 03:23:37;;;;;;;11.52;8.38;;;;;;;16.89;74.92;93675.00;5112968;28;20415;-54
2022/07/02 03:26:02;;;;;;;14.00;10.65;;;;;;;16.94;74.80;93701.88;5112999;28;20066;-52
2022/07/02 03:28:28;;;;;;;11.95;8.40;;;;;;;17.03;74.61;93709.53;5113073;28;20031;-49
2022/07/02 03:30:53;;;;;;;13.48;9.30;;;;;;;17.02;74.23;93705.25;5113161;28;20477;-48
2022/07/02 03:33:19;;;;;;;10.82;8.85;;;;;;;17.14;74.22;93708.97;5112636;28;20401;-48
2022/07/02 03:35:44;;;;;;;11.02;8.77;;;;;;;16.92;74.75;93692.63;5112979;28;20020;-50
2022/07/02 03:38:10;;;;;;;11.10;8.85;;;;;;;16.83;76.17;93715.66;5111570;28;20556;-48
2022/07/02 03:40:35;;;;;;;12.73;9.25;;;;;;;16.59;77.16;93700.63;5112558;28;20023;-48
2022/07/02 03:43:01;;;;;;;9.05;8.15;;;;;;;16.72;77.10;93708.56;5112202;28;20015;-47
2022/07/02 03:45:26;;;;;;;14.77;7.43;;;;;;;16.80;76.49;93716.81;5112703;28;20020;-49
2022/07/02 03:47:51;;;;;;;8.10;7.30;;;;;;;16.92;75.84;93724.03;5112374;28;20057;-49
2022/07/02 03:50:17;;;;;;;7.50;6.78;;;;;;;16.98;75.13;93721.69;5112212;28;20034;-48
2022/07/02 03:52:42;;;;;;;9.27;8.18;;;;;;;16.92;75.14;93720.50;5112458;28;20110;-51
2022/07/02 03:55:08;;;;;;;13.65;8.02;;;;;;;16.82;76.14;93722.56;5112136;28;20035;-51
2022/07/02 03:57:34;;;;;;;16.92;8.90;;;;;;;16.80;77.12;93719.63;5112571;28;20031;-48
2022/07/02 04:00:00;;;;;;;9.55;8.45;;;;;;;16.90;77.20;93720.38;5112654;28;20108;-53
2022/07/02 04:02:25;;;;;;;13.23;9.60;;;;;;;17.08;77.02;93716.91;5112206;28;20493;-51
2022/07/02 04:04:51;;;;;;;11.05;9.20;;;;;;;17.18;77.23;93712.03;5112377;28;20023;-50
2022/07/02 04:07:17;;;;;;;12.93;9.75;;;;;;;17.22;77.45;93717.19;5092452;28;20040;-54
2022/07/02 04:09:43;;;;;;;11.13;9.00;;;;;;;17.31;77.22;93719.25;5091679;28;20085;-50
2022/07/02 04:12:09;;;;;;;14.27;10.20;;;;;;;17.39;76.33;93723.38;5091735;28;20124;-49
2022/07/02 04:14:34;;;;;;;12.25;10.82;;;;;;;17.33;76.35;93717.34;5091747;28;20523;-50
2022/07/02 04:17:00;;;;;;;13.23;10.45;;;;;;;17.42;76.90;93724.25;5099082;28;20027;-52
2022/07/02 04:19:26;;;;;;;11.07;9.95;;;;;;;17.62;76.81;93722.97;5111795;28;20047;-51
2022/07/02 04:21:51;;;;;;;12.13;10.88;;;;;;;17.63;76.83;93723.72;5112029;28;20416;-50
2022/07/02 04:24:17;;;;;;;11.77;10.63;;;;;;;17.63;77.08;93718.84;5110241;28;20687;-49
2022/07/02 04:26:42;;;;;;;12.30;10.77;;;;;;;17.66;77.20;93723.25;5111905;28;20032;-53
2022/07/02 04:29:08;;;;;;;17.40;10.85;;;;;;;17.80;76.80;93723.53;5111999;28;20050;-51
2022/07/02 04:31:33;;;;;;;13.75;11.32;;;;;;;17.77;76.80;93700.31;5111728;28;20035;-61
2022/07/02 04:33:59;;;;;;;15.30;11.52;;;;;;;17.89;77.50;93717.94;5111728;28;20413;-60
2022/07/02 04:36:24;;;;;;;12.77;11.40;;;;;;;17.96;77.63;93722.63;5111476;27;20038;-62
2022/07/02 04:38:50;;;;;;;17.98;10.73;;;;;;;18.06;77.34;93723.34;5111950;27;20100;-61
2022/07/02 04:41:16;;;;;;;15.60;11.10;;;;;;;18.12;77.48;93721.00;5110428;28;20024;-61
2022/07/02 04:43:41;;;;;;;29.10;12.48;;;;;;;18.21;77.61;93716.69;5096684;27;20027;-61
2022/07/02 04:46:06;;;;;;;13.00;10.68;;;;;;;18.13;78.85;93718.91;5111462;28;20084;-59
2022/07/02 04:48:32;;;;;;;13.85;11.70;;;;;;;18.20;79.21;93718.00;5111412;28;20096;-48
2022/07/02 04:50:57;;;;;;;14.75;11.60;;;;;;;18.37;78.75;93722.66;5111301;28;20028;-50
2022/07/02 04:53:23;;;;;;;12.15;10.85;;;;;;;18.45;78.73;93723.97;5111622;28;20089;-50
2022/07/02 04:55:48;;;;;;;16.25;11.43;;;;;;;18.55;78.66;93724.69;5111560;28;20036;-50
2022/07/02 04:58:14;;;;;;;11.85;10.25;;;;;;;18.63;79.31;93730.09;5111173;27;20062;-58
2022/07/02 05:00:39;;;;;;;16.20;11.32;;;;;;;18.75;79.32;93728.84;5111180;28;20489;-58
2022/07/02 05:03:05;;;;;;;17.33;12.10;;;;;;;18.70;79.62;93710.34;5094959;28;20161;-58
2022/07/02 05:05:30;;;;;;;12.93;10.85;;;;;;;18.92;79.57;93723.06;5090826;28;20028;-58
2022/07/02 05:07:56;;;;;;;16.75;10.65;;;;;;;19.00;79.10;93724.91;5091035;28;20028;-48
2022/07/02 05:10:21;;;;;;;12.40;10.95;;;;;;;19.03;79.06;93732.84;5102632;28;20032;-48
2022/07/02 05:12:47;;;;;;;13.65;11.20;;;;;;;19.17;78.25;93733.78;5110605;28;20062;-48
2022/07/02 05:15:12;;;;;;;14.18;11.27;;;;;;;19.28;76.30;93730.34;5110138;28;20046;-49
2022/07/02 05:17:38;;;;;;;11.75;10.30;;;;;;;19.47;75.75;93737.88;5110210;28;20054;-50
2022/07/02 05:20:04;;;;;;;14.02;11.70;;;;;;;19.58;75.66;93737.22;5110376;28;20587;-46
2022/07/02 05:22:30;;;;;;;13.30;11.02;;;;;;;19.63;76.03;93734.09;5110456;28;20064;-48
2022/07/02 05:24:55;;;;;;;11.85;10.40;;;;;;;19.79;76.18;93730.88;5110544;28;20023;-51
2022/07/02 05:27:21;;;;;;;12.30;11.10;;;;;;;19.81;75.69;93734.53;5110648;28;20051;-53
2022/07/02 05:29:46;;;;;;;14.70;10.98;;;;;;;19.87;76.15;93734.19;5110398;28;20508;-58
2022/07/02 05:32:12;;;;;;;22.23;11.15;;;;;;;19.97;76.96;93740.44;5109127;28;20019;-54
2022/07/02 05:34:37;;;;;;;13.02;11.00;;;;;;;20.01;76.85;93735.81;5109792;28;20026;-49
2022/07/02 05:37:03;;;;;;;13.90;10.75;;;;;;;20.16;76.14;93737.47;5110254;28;20027;-49
2022/07/02 05:39:28;;;;;;;12.20;10.90;;;;;;;20.22;76.07;93735.81;5110096;28;20039;-51
2022/07/02 05:41:55;;;;;;;13.18;10.95;;;;;;;20.33;74.90;93737.16;5110051;28;20023;-54
2022/07/02 05:44:21;;;;;;;19.55;11.18;;;;;;;20.38;74.43;93731.19;5097786;28;20036;-55
2022/07/02 05:46:46;;;;;;;13.40;11.98;;;;;;;20.49;74.69;93729.75;5104330;28;20028;-53
2022/07/02 05:49:12;;;;;;;11.18;9.85;;;;;;;20.57;74.24;93732.31;5110142;28;20022;-51
2022/07/02 05:51:37;;;;;;;44.78;11.13;;;;;;;20.64;73.95;93734.88;5109821;28;20028;-52
2022/07/02 05:54:03;;;;;;;15.40;9.35;;;;;;;20.75;73.11;93734.16;5106318;28;20076;-50
2022/07/02 05:56:29;;;;;;;10.77;8.55;;;;;;;20.81;72.24;93742.22;5093320;28;20398;-53
2022/07/02 05:58:56;;;;;;;9.05;7.93;;;;;;;20.85;71.68;93742.47;5101933;28;20102;-51
2022/07/02 06:01:22;;;;;;;10.55;8.63;;;;;;;20.95;69.49;93735.38;5109710;28;20485;-51
2022/07/02 06:03:48;;;;;;;9.15;7.45;;;;;;;21.10;69.49;93739.78;5110012;28;20107;-55
2022/07/02 06:08:57;;;;;;;14.73;10.73;;;;;;;21.22;71.66;93737.72;5096251;28;20043;-49
2022/07/02 06:11:23;;;;;;;12.00;10.45;;;;;;;21.33;70.03;93736.25;5089239;28;20024;-53
2022/07/02 06:13:48;;;;;;;14.50;9.93;;;;;;;21.40;71.95;93735.22;5089215;28;20043;-51
2022/07/02 06:16:14;;;;;;;10.90;9.57;;;;;;;21.50;72.90;93730.22;5090056;28;20417;-56
2022/07/02 06:18:39;;;;;;;12.48;11.20;;;;;;;21.67;69.51;93733.34;5108886;28;20185;-58
2022/07/02 06:21:05;;;;;;;10.48;9.30;;;;;;;21.72;69.62;93729.41;5109681;28;20020;-57
2022/07/02 06:23:32;;;;;;;11.13;8.95;;;;;;;21.76;68.44;93745.78;5109605;28;20040;-58
2022/07/02 06:25:58;;;;;;;10.43;9.13;;;;;;;21.71;68.15;93711.09;5109703;28;20036;-55
2022/07/02 06:28:24;;;;;;;11.77;8.50;;;;;;;21.92;66.85;93732.66;5109489;28;20104;-57
2022/07/02 06:30:49;;;;;;;10.88;9.07;;;;;;;22.07;67.34;93737.03;5109384;28;20077;-58
2022/07/02 06:33:15;;;;;;;16.08;8.73;;;;;;;22.17;67.79;93740.41;5103526;28;20123;-60
2022/07/02 06:35:42;;;;;;;10.63;8.32;;;;;;;22.31;64.21;93741.16;5097352;28;20032;-58
2022/07/02 06:38:08;;;;;;;8.57;7.85;;;;;;;22.34;63.74;93723.78;5088954;28;20097;-58
2022/07/02 06:40:34;;;;;;;11.30;8.00;;;;;;;22.57;65.23;93746.16;5087733;28;20036;-58
2022/07/02 06:42:59;;;;;;;10.80;8.18;;;;;;;22.63;65.18;93745.06;5104102;28;20602;-53
2022/07/02 06:45:25;;;;;;;13.27;8.48;;;;;;;22.78;65.58;93738.84;5107908;28;20035;-51
2022/07/02 06:47:50;;;;;;;13.55;8.60;;;;;;;22.87;66.12;93746.38;5108806;28;20416;-55
2022/07/02 06:50:18;;;;;;;11.23;9.15;;;;;;;22.91;64.24;93743.75;5109029;28;20740;-51
2022/07/02 06:52:45;;;;;;;12.27;9.32;;;;;;;23.08;64.28;93746.06;5109572;28;20028;-52
2022/07/02 06:55:12;;;;;;;9.77;8.77;;;;;;;23.11;64.55;93751.19;5109316;28;20027;-55
2022/07/02 06:57:38;;;;;;;12.45;8.02;;;;;;;23.29;62.78;93754.22;5108936;28;20503;-59
2022/07/02 07:00:05;;;;;;;9.13;8.10;;;;;;;23.27;62.80;93734.38;5108858;28;20517;-60
2022/07/02 07:02:31;;;;;;;8.02;7.22;;;;;;;23.54;61.34;93747.78;5105253;28;20617;-60
2022/07/02 07:04:56;;;;;;;9.73;8.15;;;;;;;23.74;59.90;93752.31;5109437;28;20156;-59
2022/07/02 07:07:27;;;;;;;8.95;8.10;;;;;;;23.82;60.75;93760.47;5108643;28;20176;-59
2022/07/02 07:09:54;;;;;;;8.02;7.30;;;;;;;23.68;61.51;93745.66;5108047;28;20412;-58
2022/07/02 07:12:19;;;;;;;9.77;7.85;;;;;;;23.96;61.48;93761.88;5108959;28;20036;-59
2022/07/02 07:14:45;;;;;;;8.98;7.60;;;;;;;24.16;60.56;93761.44;5109106;28;20106;-58
2022/07/02 07:17:11;;;;;;;9.07;7.80;;;;;;;24.30;61.60;93760.03;5108435;28;20041;-60
2022/07/02 07:19:36;;;;;;;9.52;7.53;;;;;;;24.58;61.26;93761.38;5096230;28;20051;-59
2022/07/02 07:22:02;;;;;;;9.80;7.53;;;;;;;24.81;60.68;93749.78;5088356;28;20044;-59
2022/07/02 07:24:27;;;;;;;8.75;7.25;;;;;;;25.25;59.12;93753.88;5090327;28;20020;-60
2022/07/02 07:26:53;;;;;;;8.45;7.15;;;;;;;25.60;57.20;93756.13;5108905;28;20469;-60
2022/07/02 07:29:19;;;;;;;7.32;6.68;;;;;;;26.09;56.21;93773.84;5103933;28;20070;-58
2022/07/02 07:31:44;;;;;;;11.38;7.78;;;;;;;26.55;56.04;93771.44;5088320;28;20026;-59
2022/07/02 07:44:58;;;;;;;8.00;5.70;;;;;;;31.26;44.82;93764.19;5125175;27;20841;-60
2022/07/02 07:47:24;;;;;;;6.10;5.28;;;;;;;32.01;43.51;93760.78;5127367;27;20608;-61
2022/07/02 07:49:49;;;;;;;6.03;5.43;;;;;;;32.39;40.34;93760.03;5127083;27;20055;-58
2022/07/02 07:52:14;;;;;;;5.72;5.20;;;;;;;32.68;40.66;93764.84;5126428;27;20027;-58
2022/07/02 07:54:40;;;;;;;9.40;5.28;;;;;;;33.25;40.12;93764.31;5127835;27;20153;-57
2022/07/02 07:57:06;;;;;;;11.43;5.22;;;;;;;33.82;39.02;93773.66;5124916;27;20038;-58
2022/07/02 07:59:32;;;;;;;6.75;5.28;;;;;;;33.71;38.54;93752.78;5105148;27;20047;-59
2022/07/02 08:01:57;;;;;;;5.88;5.38;;;;;;;33.83;38.07;93764.34;5105795;28;20507;-58
2022/07/02 08:04:24;;;;;;;5.60;5.10;;;;;;;34.48;37.60;93776.56;5117953;28;20019;-58
2022/07/02 08:06:49;;;;;;;8.35;7.05;;;;;;;35.09;36.01;93767.06;5124674;27;20035;-57
2022/07/02 08:09:15;;;;;;;9.23;5.75;;;;;;;35.79;35.78;93778.28;5124538;27;20023;-58
2022/07/02 08:11:40;;;;;;;10.65;5.78;;;;;;;36.19;34.16;93781.31;5124697;27;20132;-57
2022/07/02 08:14:06;;;;;;;6.38;5.40;;;;;;;36.84;32.60;93773.53;5124505;27;20453;-57
2022/07/02 08:16:31;;;;;;;5.00;4.60;;;;;;;37.52;31.38;93772.09;5124050;28;20546;-57
2022/07/02 08:18:57;;;;;;;8.70;5.55;;;;;;;38.25;29.74;93781.25;5124665;27;20726;-57
2022/07/02 08:21:23;;;;;;;6.78;5.53;;;;;;;38.85;29.24;93780.91;5124519;27;20061;-57
2022/07/02 08:23:48;;;;;;;5.13;4.28;;;;;;;39.02;28.62;93781.47;5123536;27;20023;-57
2022/07/02 08:26:14;;;;;;;6.22;3.88;;;;;;;38.01;29.93;93767.63;5122648;27;20488;-57
2022/07/02 08:28:39;;;;;;;4.63;4.22;;;;;;;36.77;30.69;93769.22;5124095;27;20623;-59
2022/07/02 08:31:05;;;;;;;7.65;5.18;;;;;;;35.72;33.46;93782.53;5123469;27;20020;-59
2022/07/02 08:33:30;;;;;;;5.28;4.80;;;;;;;35.00;34.51;93783.50;5121746;27;20914;-59
2022/07/02 08:35:56;;;;;;;5.43;4.93;;;;;;;34.87;36.30;93776.19;5123477;28;20106;-59
2022/07/02 08:38:22;;;;;;;6.82;5.03;;;;;;;35.41;35.49;93775.19;5123589;27;20042;-58
2022/07/02 08:40:48;;;;;;;6.50;5.43;;;;;;;36.37;35.16;93786.41;5122773;27;20019;-59
2022/07/02 08:43:15;;;;;;;7.65;4.85;;;;;;;37.04;33.42;93764.19;5123316;27;20036;-59
2022/07/02 08:45:43;;;;;;;7.45;5.13;;;;;;;37.80;32.87;93780.66;5110925;27;20061;-59
2022/07/02 08:48:09;;;;;;;6.10;5.00;;;;;;;38.10;30.24;93779.84;5104083;28;20023;-60
2022/07/02 08:50:36;;;;;;;5.95;5.03;;;;;;;38.44;28.40;93783.28;5110233;28;20080;-59
2022/07/02 08:53:04;;;;;;;6.45;4.65;;;;;;;38.65;28.36;93784.59;5106997;28;20034;-59
2022/07/02 08:55:32;;;;;;;6.15;4.47;;;;;;;37.88;30.29;93760.47;5110053;28;20603;-60
2022/07/02 08:57:58;;;;;;;5.78;3.95;;;;;;;37.89;30.01;93765.50;5106954;28;20156;-57
2022/07/02 09:00:24;;;;;;;6.47;5.50;;;;;;;37.85;28.90;93782.84;5109367;28;20118;-59
2022/07/02 09:02:51;;;;;;;6.55;5.00;;;;;;;37.96;28.17;93777.75;5109424;28;20506;-55
2022/07/02 09:05:18;;;;;;;11.60;4.80;;;;;;;37.40;30.05;93783.63;5109545;28;20024;-57
2022/07/02 09:07:45;;;;;;;4.75;4.05;;;;;;;37.62;29.53;93778.53;5108945;28;20019;-58
2022/07/02 09:10:10;;;;;;;4.88;4.40;;;;;;;37.97;29.39;93781.34;5108061;28;20461;-59
2022/07/02 09:12:38;;;;;;;4.05;3.65;;;;;;;38.38;27.56;93776.84;5109915;28;20026;-59
2022/07/02 09:15:04;;;;;;;5.03;4.07;;;;;;;38.69;25.15;93760.78;5110102;28;20429;-58
2022/07/02 09:17:30;;;;;;;9.43;3.75;;;;;;;38.19;24.86;93772.56;5109469;28;20059;-53
2022/07/02 09:19:56;;;;;;;17.23;4.18;;;;;;;38.53;24.25;93781.09;5109264;28;20555;-57
2022/07/02 09:22:34;;;;;;;6.45;4.47;;;;;;;38.58;25.73;93782.47;5110050;28;20059;-58
2022/07/02 09:25:17;;;;;;;6.22;3.63;;;;;;;38.36;26.55;93779.72;5108971;28;20026;-54
2022/07/02 09:27:44;;;;;;;4.90;3.35;;;;;;;37.79;24.88;93782.09;5109287;28;20026;-56
2022/07/02 09:30:11;;;;;;;4.88;3.75;;;;;;;37.67;25.12;93785.72;5111415;28;20495;-55
2022/07/02 09:32:39;;;;;;;4.80;4.00;;;;;;;37.88;25.00;93786.44;5111555;28;20030;-56
2022/07/02 09:35:05;;;;;;;4.13;3.83;;;;;;;38.38;26.74;93782.63;5111161;27;20097;-49
2022/07/02 09:37:31;;;;;;;6.90;3.75;;;;;;;38.15;25.28;93789.91;5111489;28;20028;-55
2022/07/02 09:40:00;;;;;;;6.50;4.00;;;;;;;38.19;26.07;93784.84;5111324;28;20467;-51
2022/07/02 09:42:31;;;;;;;5.65;3.88;;;;;;;38.18;25.54;93789.19;5110018;28;20027;-55
2022/07/02 09:44:57;;;;;;;5.75;4.45;;;;;;;38.07;26.22;93776.25;5109709;28;20039;-55
2022/07/02 09:47:29;;;;;;;6.40;4.10;;;;;;;38.08;25.20;93789.22;5109875;28;20531;-50
2022/07/02 09:49:55;;;;;;;4.35;3.75;;;;;;;37.78;25.13;93786.41;5111303;28;20054;-54
2022/07/02 09:52:20;;;;;;;7.38;4.13;;;;;;;37.37;24.90;93794.44;5109975;28;20507;-52
2022/07/02 09:54:46;;;;;;;5.00;4.05;;;;;;;37.73;27.89;93787.88;5111337;28;20027;-55
2022/07/02 09:57:12;;;;;;;4.47;4.13;;;;;;;37.67;25.73;93771.31;5109794;28;20613;-49
2022/07/02 09:59:39;;;;;;;4.25;3.85;;;;;;;37.64;25.64;93792.22;5110424;28;20031;-54
2022/07/02 10:02:05;;;;;;;6.65;3.95;;;;;;;36.93;25.53;93780.75;5110543;27;20428;-50
2022/07/02 10:04:32;;;;;;;8.23;4.78;;;;;;;36.61;26.10;93783.59;5110102;28;20502;-56
2022/07/02 10:06:59;;;;;;;4.78;4.32;;;;;;;36.67;26.68;93780.72;5110788;28;20049;-51
2022/07/02 10:09:25;;;;;;;4.45;3.58;;;;;;;36.55;26.23;93766.34;5110686;28;20031;-58
2022/07/02 10:11:51;;;;;;;5.65;4.03;;;;;;;36.69;26.69;93780.03;5110550;28;20493;-55
2022/07/02 10:14:20;;;;;;;5.43;4.07;;;;;;;37.10;25.79;93773.56;5109324;28;20051;-57
2022/07/02 10:16:48;;;;;;;7.30;4.15;;;;;;;37.41;24.27;93773.53;5109023;28;20500;-57
2022/07/02 10:19:14;;;;;;;4.32;4.00;;;;;;;37.92;24.54;93775.56;5110379;28;20015;-52
2022/07/02 10:21:40;;;;;;;4.97;3.97;;;;;;;38.30;25.90;93777.59;5108574;28;20023;-57
2022/07/02 10:24:06;;;;;;;3.72;3.42;;;;;;;38.73;23.44;93778.06;5109797;28;20046;-55
2022/07/02 10:26:32;;;;;;;4.45;3.83;;;;;;;39.45;25.97;93768.09;5109150;28;20062;-56
2022/07/02 10:29:01;;;;;;;6.18;3.72;;;;;;;39.71;23.73;93776.53;5110750;28;20484;-53
2022/07/02 10:31:34;;;;;;;6.05;3.83;;;;;;;39.73;22.97;93759.16;5110285;28;20030;-54
2022/07/02 10:34:20;;;;;;;8.38;4.82;;;;;;;39.93;23.08;93764.72;5109356;28;20076;-57
2022/07/02 10:36:46;;;;;;;7.43;5.63;;;;;;;39.87;24.60;93764.78;5109396;28;20474;-57
2022/07/02 10:39:15;;;;;;;3.85;3.33;;;;;;;39.97;22.73;93753.09;5110104;28;20409;-57
2022/07/02 10:41:41;;;;;;;6.70;4.00;;;;;;;40.04;22.33;93760.28;5110003;28;20076;-54
2022/07/02 10:44:09;;;;;;;13.63;4.38;;;;;;;39.70;23.68;93757.75;5109891;28;20043;-57
2022/07/02 10:46:35;;;;;;;5.80;4.18;;;;;;;39.59;24.86;93753.56;5109878;28;20040;-56
2022/07/02 10:49:01;;;;;;;4.15;3.35;;;;;;;39.86;22.19;93754.69;5107462;28;20095;-57
2022/07/02 10:51:29;;;;;;;5.10;3.97;;;;;;;39.38;22.80;93752.28;5110228;28;20111;-57
2022/07/02 10:53:59;;;;;;;4.50;4.10;;;;;;;39.10;23.65;93746.75;5109844;28;20028;-55
2022/07/02 10:56:26;;;;;;;6.80;4.07;;;;;;;39.01;23.95;93748.25;5107480;28;20039;-54
2022/07/02 10:58:51;;;;;;;6.32;4.35;;;;;;;38.96;25.51;93744.00;5109778;28;20019;-56
2022/07/02 11:01:21;;;;;;;4.90;4.32;;;;;;;38.83;25.46;93748.44;5109065;28;20062;-57
2022/07/02 11:03:57;;;;;;;15.30;4.15;;;;;;;38.55;24.49;93752.22;5109192;28;20042;-57
2022/07/02 11:06:27;;;;;;;3.88;3.58;;;;;;;38.50;24.48;93750.81;5110940;28;20031;-57
2022/07/02 11:08:53;;;;;;;4.57;4.10;;;;;;;38.52;23.98;93742.13;5110606;28;20030;-56
2022/07/02 11:11:37;;;;;;;6.97;4.35;;;;;;;38.55;25.71;93746.44;5111237;28;20066;-58
2022/07/02 11:14:13;;;;;;;6.15;4.72;;;;;;;38.77;26.63;93736.94;5108733;28;20031;-54
2022/07/02 11:16:46;;;;;;;6.57;4.43;;;;;;;38.27;25.78;93743.75;5109826;28;20097;-58
2022/07/02 11:19:11;;;;;;;4.10;3.70;;;;;;;38.34;26.42;93739.34;5111051;28;20036;-59
2022/07/02 11:21:38;;;;;;;5.13;4.20;;;;;;;38.09;27.16;93726.50;5111115;28;20034;-62
2022/07/02 11:24:04;;;;;;;7.72;4.32;;;;;;;37.66;26.71;93728.84;5111083;28;20020;-60
2022/07/02 11:26:30;;;;;;;4.65;3.92;;;;;;;36.85;25.60;93740.44;5111006;28;20047;-59
2022/07/02 11:29:02;;;;;;;4.72;3.95;;;;;;;36.32;25.86;93736.06;5110670;28;20078;-58
2022/07/02 11:31:28;;;;;;;6.45;4.55;;;;;;;36.05;26.23;93740.31;5110476;28;20032;-57
2022/07/02 11:33:56;;;;;;;6.55;4.57;;;;;;;35.63;29.06;93747.31;5110469;28;20027;-57
2022/07/02 11:36:22;;;;;;;;;;;;;;;35.19;30.46;93737.72;5111201;28;20027;-51
2022/07/02 11:38:50;;;;;;;5.90;5.30;;;;;;;34.74;32.42;93740.22;5110678;28;19912;-58
2022/07/02 11:41:34;;;;;;;5.45;4.80;;;;;;;34.48;32.46;93739.97;5110075;28;20028;-58